sensor_id;sensor_type;location;lat;lon;timestamp;temperature;humidity
8664;DHT22;4369;47.842;13.096;2022-08-14T00:00:43;16.30;99.90
8664;DHT22;4369;47.842;13.096;2022-08-14T00:03:18;16.30;99.90
8664;DHT22;4369;47.842;13.096;2022-08-14T00:05:45;16.20;99.90
8664;DHT22;4369;47.842;13.096;2022-08-14T00:08:13;16.20;99.90
8664;DHT22;4369;47.842;13.096;2022-08-14T00:10:40;16.20;99.90
8664;DHT22;4369;47.842;13.096;2022-08-14T00:13:08;16.10;99.90
8664;DHT22;4369;47.842;13.096;2022-08-14T00:15:37;16.10;99.90
8664;DHT22;4369;47.842;13.096;2022-08-14T00:18:05;16.10;99.90
8664;DHT22;4369;47.842;13.096;2022-08-14T00:20:34;16.10;99.90
8664;DHT22;4369;47.842;13.096;2022-08-14T00:23:02;16.10;99.90
8664;DHT22;4369;47.842;13.096;2022-08-14T00:25:31;16.00;99.90
8664;DHT22;4369;47.842;13.096;2022-08-14T00:27:58;16.00;99.90
8664;DHT22;4369;47.842;13.096;2022-08-14T00:30:25;16.00;99.90
8664;DHT22;4369;47.842;13.096;2022-08-14T00:32:52;16.00;99.90
8664;DHT22;4369;47.842;13.096;2022-08-14T00:35:19;16.00;99.90
8664;DHT22;4369;47.842;13.096;2022-08-14T00:37:46;16.00;99.90
8664;DHT22;4369;47.842;13.096;2022-08-14T00:40:15;16.00;99.90
8664;DHT22;4369;47.842;13.096;2022-08-14T00:42:43;15.90;99.90
8664;DHT22;4369;47.842;13.096;2022-08-14T00:45:13;15.90;99.90
8664;DHT22;4369;47.842;13.096;2022-08-14T00:47:45;15.90;99.90
8664;DHT22;4369;47.842;13.096;2022-08-14T00:50:14;15.90;99.90
8664;DHT22;4369;47.842;13.096;2022-08-14T00:52:42;15.90;99.90
8664;DHT22;4369;47.842;13.096;2022-08-14T00:55:11;15.90;99.90
8664;DHT22;4369;47.842;13.096;2022-08-14T00:57:38;15.90;99.90
8664;DHT22;4369;47.842;13.096;2022-08-14T01:00:09;15.90;99.90
8664;DHT22;4369;47.842;13.096;2022-08-14T01:02:40;15.90;99.90
8664;DHT22;4369;47.842;13.096;2022-08-14T01:05:09;15.90;99.90
8664;DHT22;4369;47.842;13.096;2022-08-14T01:07:49;15.90;99.90
8664;DHT22;4369;47.842;13.096;2022-08-14T01:10:17;15.80;99.90
8664;DHT22;4369;47.842;13.096;2022-08-14T01:12:45;15.80;99.90
8664;DHT22;4369;47.842;13.096;2022-08-14T01:15:15;15.80;99.90
8664;DHT22;4369;47.842;13.096;2022-08-14T01:17:46;15.80;99.90
8664;DHT22;4369;47.842;13.096;2022-08-14T01:20:52;15.80;99.90
8664;DHT22;4369;47.842;13.096;2022-08-14T01:23:37;15.80;99.90
8664;DHT22;4369;47.842;13.096;2022-08-14T01:26:04;15.80;99.90
8664;DHT22;4369;47.842;13.096;2022-08-14T01:28:32;15.80;99.90
8664;DHT22;4369;47.842;13.096;2022-08-14T01:31:04;15.80;99.90
8664;DHT22;4369;47.842;13.096;2022-08-14T01:33:35;15.80;99.90
8664;DHT22;4369;47.842;13.096;2022-08-14T01:36:07;15.80;99.90
8664;DHT22;4369;47.842;13.096;2022-08-14T01:38:36;15.80;99.90
8664;DHT22;4369;47.842;13.096;2022-08-14T01:41:05;15.80;99.90
8664;DHT22;4369;47.842;13.096;2022-08-14T01:43:42;15.70;99.90
8664;DHT22;4369;47.842;13.096;2022-08-14T01:46:09;15.70;99.90
8664;DHT22;4369;47.842;13.096;2022-08-14T01:48:37;15.70;99.90
8664;DHT22;4369;47.842;13.096;2022-08-14T01:51:10;15.60;99.90
8664;DHT22;4369;47.842;13.096;2022-08-14T01:53:40;15.50;99.90
8664;DHT22;4369;47.842;13.096;2022-08-14T01:56:09;15.50;99.90
8664;DHT22;4369;47.842;13.096;2022-08-14T01:58:37;15.50;99.90
8664;DHT22;4369;47.842;13.096;2022-08-14T02:01:04;15.50;99.90
8664;DHT22;4369;47.842;13.096;2022-08-14T02:03:38;15.50;99.90
8664;DHT22;4369;47.842;13.096;2022-08-14T02:06:06;15.40;99.90
8664;DHT22;4369;47.842;13.096;2022-08-14T02:08:33;15.30;99.90
8664;DHT22;4369;47.842;13.096;2022-08-14T02:11:06;15.40;99.90
8664;DHT22;4369;47.842;13.096;2022-08-14T02:13:49;15.30;99.90
8664;DHT22;4369;47.842;13.096;2022-08-14T02:16:18;15.30;99.90
8664;DHT22;4369;47.842;13.096;2022-08-14T02:18:45;15.30;99.90
8664;DHT22;4369;47.842;13.096;2022-08-14T02:21:14;15.30;99.90
8664;DHT22;4369;47.842;13.096;2022-08-14T02:23:44;15.30;99.90
8664;DHT22;4369;47.842;13.096;2022-08-14T02:26:18;15.20;99.90
8664;DHT22;4369;47.842;13.096;2022-08-14T02:28:46;15.20;99.90
8664;DHT22;4369;47.842;13.096;2022-08-14T02:31:14;15.10;99.90
8664;DHT22;4369;47.842;13.096;2022-08-14T02:33:41;15.10;99.90
8664;DHT22;4369;47.842;13.096;2022-08-14T02:36:08;15.10;99.90
8664;DHT22;4369;47.842;13.096;2022-08-14T02:38:37;15.10;99.90
8664;DHT22;4369;47.842;13.096;2022-08-14T02:41:08;15.10;99.90
8664;DHT22;4369;47.842;13.096;2022-08-14T02:43:37;15.10;99.90
8664;DHT22;4369;47.842;13.096;2022-08-14T02:46:05;15.10;99.90
8664;DHT22;4369;47.842;13.096;2022-08-14T02:48:35;15.10;99.90
8664;DHT22;4369;47.842;13.096;2022-08-14T02:51:05;15.10;99.90
8664;DHT22;4369;47.842;13.096;2022-08-14T02:53:32;15.10;99.90
8664;DHT22;4369;47.842;13.096;2022-08-14T02:56:00;15.10;99.90
8664;DHT22;4369;47.842;13.096;2022-08-14T02:58:28;15.10;99.90
8664;DHT22;4369;47.842;13.096;2022-08-14T03:00:57;15.10;99.90
8664;DHT22;4369;47.842;13.096;2022-08-14T03:03:24;15.00;99.90
8664;DHT22;4369;47.842;13.096;2022-08-14T03:05:52;15.00;99.90
8664;DHT22;4369;47.842;13.096;2022-08-14T03:08:19;15.10;99.90
8664;DHT22;4369;47.842;13.096;2022-08-14T03:10:47;15.00;99.90
8664;DHT22;4369;47.842;13.096;2022-08-14T03:13:14;15.00;99.90
8664;DHT22;4369;47.842;13.096;2022-08-14T03:15:43;15.00;99.90
8664;DHT22;4369;47.842;13.096;2022-08-14T03:18:14;15.00;99.90
8664;DHT22;4369;47.842;13.096;2022-08-14T03:20:41;14.90;99.90
8664;DHT22;4369;47.842;13.096;2022-08-14T03:23:08;14.90;99.90
8664;DHT22;4369;47.842;13.096;2022-08-14T03:25:40;14.80;99.90
8664;DHT22;4369;47.842;13.096;2022-08-14T03:28:08;14.80;99.90
8664;DHT22;4369;47.842;13.096;2022-08-14T03:30:35;14.80;99.90
8664;DHT22;4369;47.842;13.096;2022-08-14T03:33:03;14.70;99.90
8664;DHT22;4369;47.842;13.096;2022-08-14T03:35:31;14.70;99.90
8664;DHT22;4369;47.842;13.096;2022-08-14T03:38:04;14.70;99.90
8664;DHT22;4369;47.842;13.096;2022-08-14T03:40:33;14.70;99.90
8664;DHT22;4369;47.842;13.096;2022-08-14T03:43:03;14.60;99.90
8664;DHT22;4369;47.842;13.096;2022-08-14T03:45:30;14.60;99.90
8664;DHT22;4369;47.842;13.096;2022-08-14T03:47:58;14.60;99.90
8664;DHT22;4369;47.842;13.096;2022-08-14T03:50:27;14.60;99.90
8664;DHT22;4369;47.842;13.096;2022-08-14T03:52:55;14.60;99.90
8664;DHT22;4369;47.842;13.096;2022-08-14T03:55:22;14.50;99.90
8664;DHT22;4369;47.842;13.096;2022-08-14T03:57:49;14.50;99.90
8664;DHT22;4369;47.842;13.096;2022-08-14T04:00:16;14.50;99.90
8664;DHT22;4369;47.842;13.096;2022-08-14T04:02:43;14.50;99.90
8664;DHT22;4369;47.842;13.096;2022-08-14T04:05:10;14.40;99.90
8664;DHT22;4369;47.842;13.096;2022-08-14T04:07:37;14.50;99.90
8664;DHT22;4369;47.842;13.096;2022-08-14T04:10:07;14.40;99.90
8664;DHT22;4369;47.842;13.096;2022-08-14T04:12:36;14.50;99.90
8664;DHT22;4369;47.842;13.096;2022-08-14T04:15:04;14.50;99.90
8664;DHT22;4369;47.842;13.096;2022-08-14T04:17:31;14.50;99.90
8664;DHT22;4369;47.842;13.096;2022-08-14T04:19:59;14.50;99.90
8664;DHT22;4369;47.842;13.096;2022-08-14T04:22:29;14.50;99.90
8664;DHT22;4369;47.842;13.096;2022-08-14T04:24:56;14.50;99.90
8664;DHT22;4369;47.842;13.096;2022-08-14T04:27:25;14.50;99.90
8664;DHT22;4369;47.842;13.096;2022-08-14T04:29:53;14.50;99.90
8664;DHT22;4369;47.842;13.096;2022-08-14T04:32:22;14.50;99.90
8664;DHT22;4369;47.842;13.096;2022-08-14T04:34:50;14.60;99.90
8664;DHT22;4369;47.842;13.096;2022-08-14T04:37:19;14.50;99.90
8664;DHT22;4369;47.842;13.096;2022-08-14T04:40:05;14.60;99.90
8664;DHT22;4369;47.842;13.096;2022-08-14T04:42:55;14.60;99.90
8664;DHT22;4369;47.842;13.096;2022-08-14T04:45:40;14.70;99.90
8664;DHT22;4369;47.842;13.096;2022-08-14T04:48:08;14.70;99.90
8664;DHT22;4369;47.842;13.096;2022-08-14T04:50:38;14.70;99.90
8664;DHT22;4369;47.842;13.096;2022-08-14T04:53:05;14.70;99.90
8664;DHT22;4369;47.842;13.096;2022-08-14T04:55:32;14.80;99.90
8664;DHT22;4369;47.842;13.096;2022-08-14T04:58:02;14.90;99.90
8664;DHT22;4369;47.842;13.096;2022-08-14T05:00:30;14.90;99.90
8664;DHT22;4369;47.842;13.096;2022-08-14T05:02:57;14.90;99.90
8664;DHT22;4369;47.842;13.096;2022-08-14T05:05:28;15.00;99.90
8664;DHT22;4369;47.842;13.096;2022-08-14T05:07:55;15.00;99.90
8664;DHT22;4369;47.842;13.096;2022-08-14T05:10:22;15.10;99.90
8664;DHT22;4369;47.842;13.096;2022-08-14T05:12:51;15.10;99.90
8664;DHT22;4369;47.842;13.096;2022-08-14T05:15:19;15.20;99.90
8664;DHT22;4369;47.842;13.096;2022-08-14T05:17:47;15.20;99.90
8664;DHT22;4369;47.842;13.096;2022-08-14T05:20:14;15.30;99.90
8664;DHT22;4369;47.842;13.096;2022-08-14T05:22:41;15.30;99.90
8664;DHT22;4369;47.842;13.096;2022-08-14T05:25:10;15.40;99.90
8664;DHT22;4369;47.842;13.096;2022-08-14T05:27:37;15.50;99.90
8664;DHT22;4369;47.842;13.096;2022-08-14T05:30:05;15.60;99.90
8664;DHT22;4369;47.842;13.096;2022-08-14T05:32:33;15.70;99.90
8664;DHT22;4369;47.842;13.096;2022-08-14T05:35:00;15.70;99.90
8664;DHT22;4369;47.842;13.096;2022-08-14T05:37:28;15.90;99.90
8664;DHT22;4369;47.842;13.096;2022-08-14T05:39:56;16.10;99.90
8664;DHT22;4369;47.842;13.096;2022-08-14T05:42:23;16.30;99.90
8664;DHT22;4369;47.842;13.096;2022-08-14T05:44:50;16.50;99.90
8664;DHT22;4369;47.842;13.096;2022-08-14T05:47:17;16.70;99.90
8664;DHT22;4369;47.842;13.096;2022-08-14T05:49:45;16.90;99.90
8664;DHT22;4369;47.842;13.096;2022-08-14T05:52:13;16.90;99.90
8664;DHT22;4369;47.842;13.096;2022-08-14T05:54:40;17.00;99.90
8664;DHT22;4369;47.842;13.096;2022-08-14T05:57:06;17.20;99.90
8664;DHT22;4369;47.842;13.096;2022-08-14T05:59:34;17.40;99.90
8664;DHT22;4369;47.842;13.096;2022-08-14T06:02:01;17.50;99.90
8664;DHT22;4369;47.842;13.096;2022-08-14T06:04:28;17.60;99.90
8664;DHT22;4369;47.842;13.096;2022-08-14T06:06:56;17.70;99.90
8664;DHT22;4369;47.842;13.096;2022-08-14T06:09:23;17.70;99.90
8664;DHT22;4369;47.842;13.096;2022-08-14T06:11:49;17.70;99.90
8664;DHT22;4369;47.842;13.096;2022-08-14T06:14:16;17.90;99.90
8664;DHT22;4369;47.842;13.096;2022-08-14T06:16:45;17.90;99.90
8664;DHT22;4369;47.842;13.096;2022-08-14T06:19:12;18.10;99.90
8664;DHT22;4369;47.842;13.096;2022-08-14T06:21:39;18.20;99.90
8664;DHT22;4369;47.842;13.096;2022-08-14T06:24:07;18.20;99.90
8664;DHT22;4369;47.842;13.096;2022-08-14T06:26:34;18.30;99.90
8664;DHT22;4369;47.842;13.096;2022-08-14T06:29:02;18.30;99.90
8664;DHT22;4369;47.842;13.096;2022-08-14T06:31:29;18.30;99.90
8664;DHT22;4369;47.842;13.096;2022-08-14T06:33:56;18.40;99.90
8664;DHT22;4369;47.842;13.096;2022-08-14T06:36:23;18.50;99.90
8664;DHT22;4369;47.842;13.096;2022-08-14T06:38:50;18.60;99.90
8664;DHT22;4369;47.842;13.096;2022-08-14T06:41:19;18.70;99.90
8664;DHT22;4369;47.842;13.096;2022-08-14T06:43:48;18.60;99.90
8664;DHT22;4369;47.842;13.096;2022-08-14T06:46:15;18.60;99.90
8664;DHT22;4369;47.842;13.096;2022-08-14T06:48:42;18.60;99.90
8664;DHT22;4369;47.842;13.096;2022-08-14T06:51:09;18.60;99.90
8664;DHT22;4369;47.842;13.096;2022-08-14T06:53:36;18.70;99.90
8664;DHT22;4369;47.842;13.096;2022-08-14T06:56:03;18.70;99.90
8664;DHT22;4369;47.842;13.096;2022-08-14T06:58:31;18.80;99.90
8664;DHT22;4369;47.842;13.096;2022-08-14T07:00:59;18.80;99.90
8664;DHT22;4369;47.842;13.096;2022-08-14T07:03:43;19.00;99.90
8664;DHT22;4369;47.842;13.096;2022-08-14T07:06:27;19.00;99.90
8664;DHT22;4369;47.842;13.096;2022-08-14T07:08:54;19.20;99.90
8664;DHT22;4369;47.842;13.096;2022-08-14T07:11:21;19.30;99.90
8664;DHT22;4369;47.842;13.096;2022-08-14T07:13:50;19.40;99.90
8664;DHT22;4369;47.842;13.096;2022-08-14T07:16:16;19.50;99.90
8664;DHT22;4369;47.842;13.096;2022-08-14T07:18:43;19.60;99.90
8664;DHT22;4369;47.842;13.096;2022-08-14T07:21:11;19.70;99.90
8664;DHT22;4369;47.842;13.096;2022-08-14T07:23:39;19.80;99.90
8664;DHT22;4369;47.842;13.096;2022-08-14T07:26:06;19.90;99.90
8664;DHT22;4369;47.842;13.096;2022-08-14T07:28:36;19.90;99.90
8664;DHT22;4369;47.842;13.096;2022-08-14T07:31:06;20.00;99.90
8664;DHT22;4369;47.842;13.096;2022-08-14T07:33:36;20.10;99.90
8664;DHT22;4369;47.842;13.096;2022-08-14T07:36:06;20.20;99.90
8664;DHT22;4369;47.842;13.096;2022-08-14T07:38:34;20.30;99.90
8664;DHT22;4369;47.842;13.096;2022-08-14T07:41:02;20.40;99.90
8664;DHT22;4369;47.842;13.096;2022-08-14T07:43:29;20.50;99.90
8664;DHT22;4369;47.842;13.096;2022-08-14T07:45:56;20.60;99.90
8664;DHT22;4369;47.842;13.096;2022-08-14T07:48:25;20.70;99.90
8664;DHT22;4369;47.842;13.096;2022-08-14T07:50:52;20.80;99.90
8664;DHT22;4369;47.842;13.096;2022-08-14T07:53:19;20.90;99.90
8664;DHT22;4369;47.842;13.096;2022-08-14T07:55:46;21.00;99.90
8664;DHT22;4369;47.842;13.096;2022-08-14T07:58:14;21.10;99.90
8664;DHT22;4369;47.842;13.096;2022-08-14T08:00:43;21.20;99.90
8664;DHT22;4369;47.842;13.096;2022-08-14T08:03:11;21.40;99.90
8664;DHT22;4369;47.842;13.096;2022-08-14T08:05:40;21.50;99.90
8664;DHT22;4369;47.842;13.096;2022-08-14T08:08:09;21.50;99.90
8664;DHT22;4369;47.842;13.096;2022-08-14T08:10:37;21.60;99.90
8664;DHT22;4369;47.842;13.096;2022-08-14T08:13:09;21.60;99.90
8664;DHT22;4369;47.842;13.096;2022-08-14T08:15:39;21.70;99.90
8664;DHT22;4369;47.842;13.096;2022-08-14T08:18:08;21.70;99.90
8664;DHT22;4369;47.842;13.096;2022-08-14T08:20:42;21.80;99.90
8664;DHT22;4369;47.842;13.096;2022-08-14T08:23:12;22.00;99.90
8664;DHT22;4369;47.842;13.096;2022-08-14T08:25:42;22.20;99.90
8664;DHT22;4369;47.842;13.096;2022-08-14T08:28:11;22.30;99.90
8664;DHT22;4369;47.842;13.096;2022-08-14T08:30:40;22.50;99.90
8664;DHT22;4369;47.842;13.096;2022-08-14T08:33:08;22.50;99.90
8664;DHT22;4369;47.842;13.096;2022-08-14T08:35:41;22.50;99.90
8664;DHT22;4369;47.842;13.096;2022-08-14T08:38:12;22.70;99.90
8664;DHT22;4369;47.842;13.096;2022-08-14T08:40:43;22.90;99.90
8664;DHT22;4369;47.842;13.096;2022-08-14T08:43:17;23.00;99.90
8664;DHT22;4369;47.842;13.096;2022-08-14T08:45:53;23.10;99.90
8664;DHT22;4369;47.842;13.096;2022-08-14T08:48:21;23.30;99.90
8664;DHT22;4369;47.842;13.096;2022-08-14T08:50:48;23.60;99.90
8664;DHT22;4369;47.842;13.096;2022-08-14T08:53:17;23.70;99.90
8664;DHT22;4369;47.842;13.096;2022-08-14T08:55:45;23.90;99.90
8664;DHT22;4369;47.842;13.096;2022-08-14T08:58:14;24.10;97.10
8664;DHT22;4369;47.842;13.096;2022-08-14T09:00:46;24.20;96.60
8664;DHT22;4369;47.842;13.096;2022-08-14T09:03:18;24.40;95.50
8664;DHT22;4369;47.842;13.096;2022-08-14T09:05:50;24.50;95.40
8664;DHT22;4369;47.842;13.096;2022-08-14T09:08:20;24.70;95.20
8664;DHT22;4369;47.842;13.096;2022-08-14T09:10:49;24.70;94.70
8664;DHT22;4369;47.842;13.096;2022-08-14T09:13:16;24.90;93.10
8664;DHT22;4369;47.842;13.096;2022-08-14T09:15:45;24.90;92.00
8664;DHT22;4369;47.842;13.096;2022-08-14T09:18:14;25.00;92.30
8664;DHT22;4369;47.842;13.096;2022-08-14T09:20:45;25.20;93.20
8664;DHT22;4369;47.842;13.096;2022-08-14T09:23:14;25.30;93.20
8664;DHT22;4369;47.842;13.096;2022-08-14T09:25:44;25.40;90.00
8664;DHT22;4369;47.842;13.096;2022-08-14T09:28:13;25.40;87.70
8664;DHT22;4369;47.842;13.096;2022-08-14T09:30:42;25.60;84.10
8664;DHT22;4369;47.842;13.096;2022-08-14T09:33:30;25.80;84.00
8664;DHT22;4369;47.842;13.096;2022-08-14T09:39:31;26.20;80.70
8664;DHT22;4369;47.842;13.096;2022-08-14T09:42:22;26.30;83.90
8664;DHT22;4369;47.842;13.096;2022-08-14T09:45:02;26.40;81.20
8664;DHT22;4369;47.842;13.096;2022-08-14T09:47:47;26.50;79.00
8664;DHT22;4369;47.842;13.096;2022-08-14T09:50:22;26.60;80.50
8664;DHT22;4369;47.842;13.096;2022-08-14T09:52:52;26.70;80.60
8664;DHT22;4369;47.842;13.096;2022-08-14T09:55:21;26.90;78.70
8664;DHT22;4369;47.842;13.096;2022-08-14T09:57:50;27.00;76.60
8664;DHT22;4369;47.842;13.096;2022-08-14T10:00:21;27.10;77.00
8664;DHT22;4369;47.842;13.096;2022-08-14T10:03:05;27.20;77.20
8664;DHT22;4369;47.842;13.096;2022-08-14T10:05:33;27.20;76.30
8664;DHT22;4369;47.842;13.096;2022-08-14T10:08:01;27.40;75.60
8664;DHT22;4369;47.842;13.096;2022-08-14T10:10:30;27.50;76.60
8664;DHT22;4369;47.842;13.096;2022-08-14T10:13:00;27.40;76.80
8664;DHT22;4369;47.842;13.096;2022-08-14T10:15:30;27.60;78.30
8664;DHT22;4369;47.842;13.096;2022-08-14T10:18:05;27.70;75.70
8664;DHT22;4369;47.842;13.096;2022-08-14T10:20:36;27.90;78.40
8664;DHT22;4369;47.842;13.096;2022-08-14T10:23:14;28.00;76.70
8664;DHT22;4369;47.842;13.096;2022-08-14T10:25:43;28.10;78.80
8664;DHT22;4369;47.842;13.096;2022-08-14T10:28:12;28.30;77.30
8664;DHT22;4369;47.842;13.096;2022-08-14T10:30:41;28.40;75.00
8664;DHT22;4369;47.842;13.096;2022-08-14T10:33:23;28.60;77.50
8664;DHT22;4369;47.842;13.096;2022-08-14T10:35:50;28.80;75.50
8664;DHT22;4369;47.842;13.096;2022-08-14T10:38:26;28.90;76.10
8664;DHT22;4369;47.842;13.096;2022-08-14T10:40:53;29.00;74.80
8664;DHT22;4369;47.842;13.096;2022-08-14T10:43:22;29.10;72.30
8664;DHT22;4369;47.842;13.096;2022-08-14T10:45:55;29.10;71.60
8664;DHT22;4369;47.842;13.096;2022-08-14T10:48:23;29.10;69.40
8664;DHT22;4369;47.842;13.096;2022-08-14T10:50:50;29.20;70.80
8664;DHT22;4369;47.842;13.096;2022-08-14T10:53:32;29.10;70.00
8664;DHT22;4369;47.842;13.096;2022-08-14T10:56:05;29.10;71.50
8664;DHT22;4369;47.842;13.096;2022-08-14T10:58:35;29.20;69.30
8664;DHT22;4369;47.842;13.096;2022-08-14T11:01:02;29.30;72.10
8664;DHT22;4369;47.842;13.096;2022-08-14T11:03:40;29.50;72.20
8664;DHT22;4369;47.842;13.096;2022-08-14T11:06:13;29.60;69.30
8664;DHT22;4369;47.842;13.096;2022-08-14T11:08:41;29.70;68.30
8664;DHT22;4369;47.842;13.096;2022-08-14T11:11:08;29.80;68.90
8664;DHT22;4369;47.842;13.096;2022-08-14T11:13:36;29.90;69.60
8664;DHT22;4369;47.842;13.096;2022-08-14T11:16:08;29.90;68.90
8664;DHT22;4369;47.842;13.096;2022-08-14T11:18:36;30.00;71.10
8664;DHT22;4369;47.842;13.096;2022-08-14T11:21:03;30.20;67.30
8664;DHT22;4369;47.842;13.096;2022-08-14T11:23:33;30.20;67.60
8664;DHT22;4369;47.842;13.096;2022-08-14T11:26:01;30.40;67.70
8664;DHT22;4369;47.842;13.096;2022-08-14T11:28:32;30.50;65.00
8664;DHT22;4369;47.842;13.096;2022-08-14T11:31:02;30.60;65.80
8664;DHT22;4369;47.842;13.096;2022-08-14T11:33:30;30.70;66.20
8664;DHT22;4369;47.842;13.096;2022-08-14T11:36:01;30.90;63.70
8664;DHT22;4369;47.842;13.096;2022-08-14T11:38:35;31.00;64.00
8664;DHT22;4369;47.842;13.096;2022-08-14T11:41:02;31.00;61.60
8664;DHT22;4369;47.842;13.096;2022-08-14T11:43:29;31.20;62.70
8664;DHT22;4369;47.842;13.096;2022-08-14T11:45:56;31.20;61.50
8664;DHT22;4369;47.842;13.096;2022-08-14T11:48:25;31.40;64.70
8664;DHT22;4369;47.842;13.096;2022-08-14T11:50:52;31.50;63.60
8664;DHT22;4369;47.842;13.096;2022-08-14T11:53:22;31.40;64.30
8664;DHT22;4369;47.842;13.096;2022-08-14T11:55:57;31.40;62.50
8664;DHT22;4369;47.842;13.096;2022-08-14T11:58:27;31.50;62.70
8664;DHT22;4369;47.842;13.096;2022-08-14T12:00:55;31.60;59.70
8664;DHT22;4369;47.842;13.096;2022-08-14T12:03:36;31.50;57.70
8664;DHT22;4369;47.842;13.096;2022-08-14T12:06:04;31.50;60.40
8664;DHT22;4369;47.842;13.096;2022-08-14T12:08:33;31.70;58.10
8664;DHT22;4369;47.842;13.096;2022-08-14T12:11:00;31.60;58.50
8664;DHT22;4369;47.842;13.096;2022-08-14T12:13:29;31.70;58.90
8664;DHT22;4369;47.842;13.096;2022-08-14T12:15:58;32.00;59.50
8664;DHT22;4369;47.842;13.096;2022-08-14T12:18:30;32.30;57.70
8664;DHT22;4369;47.842;13.096;2022-08-14T12:21:11;32.40;58.00
8664;DHT22;4369;47.842;13.096;2022-08-14T12:23:39;32.50;57.60
8664;DHT22;4369;47.842;13.096;2022-08-14T12:26:08;32.60;55.70
8664;DHT22;4369;47.842;13.096;2022-08-14T12:28:35;32.70;55.90
8664;DHT22;4369;47.842;13.096;2022-08-14T12:31:11;32.70;59.20
8664;DHT22;4369;47.842;13.096;2022-08-14T12:33:53;32.80;57.20
8664;DHT22;4369;47.842;13.096;2022-08-14T12:36:22;32.80;57.60
8664;DHT22;4369;47.842;13.096;2022-08-14T12:38:49;32.70;58.80
8664;DHT22;4369;47.842;13.096;2022-08-14T12:41:18;32.60;56.50
8664;DHT22;4369;47.842;13.096;2022-08-14T12:43:48;32.70;57.80
8664;DHT22;4369;47.842;13.096;2022-08-14T12:46:23;33.20;55.20
8664;DHT22;4369;47.842;13.096;2022-08-14T12:48:50;33.70;53.50
8664;DHT22;4369;47.842;13.096;2022-08-14T12:51:18;33.80;53.60
8664;DHT22;4369;47.842;13.096;2022-08-14T12:53:47;34.10;51.80
8664;DHT22;4369;47.842;13.096;2022-08-14T12:56:16;34.40;52.50
8664;DHT22;4369;47.842;13.096;2022-08-14T12:58:47;34.30;53.00
8664;DHT22;4369;47.842;13.096;2022-08-14T13:01:20;34.50;50.60
8664;DHT22;4369;47.842;13.096;2022-08-14T13:03:47;35.10;52.00
8664;DHT22;4369;47.842;13.096;2022-08-14T13:06:15;35.50;49.40
8664;DHT22;4369;47.842;13.096;2022-08-14T13:08:42;35.90;47.80
8664;DHT22;4369;47.842;13.096;2022-08-14T13:11:13;36.10;48.00
8664;DHT22;4369;47.842;13.096;2022-08-14T13:13:43;37.10;46.80
8664;DHT22;4369;47.842;13.096;2022-08-14T13:16:12;37.50;46.90
8664;DHT22;4369;47.842;13.096;2022-08-14T13:18:42;38.50;43.20
8664;DHT22;4369;47.842;13.096;2022-08-14T13:21:11;39.60;40.50
8664;DHT22;4369;47.842;13.096;2022-08-14T13:23:40;41.10;37.80
8664;DHT22;4369;47.842;13.096;2022-08-14T13:26:09;41.60;35.30
8664;DHT22;4369;47.842;13.096;2022-08-14T13:28:40;44.00;34.70
8664;DHT22;4369;47.842;13.096;2022-08-14T13:31:08;45.50;30.80
8664;DHT22;4369;47.842;13.096;2022-08-14T13:33:38;46.50;31.00
8664;DHT22;4369;47.842;13.096;2022-08-14T13:36:06;48.20;29.60
8664;DHT22;4369;47.842;13.096;2022-08-14T13:38:34;49.90;28.90
8664;DHT22;4369;47.842;13.096;2022-08-14T13:41:01;49.60;27.10
8664;DHT22;4369;47.842;13.096;2022-08-14T13:43:31;48.90;28.00
8664;DHT22;4369;47.842;13.096;2022-08-14T13:45:59;49.80;27.80
8664;DHT22;4369;47.842;13.096;2022-08-14T13:48:27;51.30;27.00
8664;DHT22;4369;47.842;13.096;2022-08-14T13:50:56;52.50;26.40
8664;DHT22;4369;47.842;13.096;2022-08-14T13:53:24;53.70;26.00
8664;DHT22;4369;47.842;13.096;2022-08-14T13:55:52;53.80;25.90
8664;DHT22;4369;47.842;13.096;2022-08-14T13:58:21;53.80;25.20
8664;DHT22;4369;47.842;13.096;2022-08-14T14:00:50;52.90;26.60
8664;DHT22;4369;47.842;13.096;2022-08-14T14:03:21;53.50;25.20
8664;DHT22;4369;47.842;13.096;2022-08-14T14:05:49;52.80;25.70
8664;DHT22;4369;47.842;13.096;2022-08-14T14:08:19;52.60;25.00
8664;DHT22;4369;47.842;13.096;2022-08-14T14:10:47;53.50;26.00
8664;DHT22;4369;47.842;13.096;2022-08-14T14:13:15;54.10;24.80
8664;DHT22;4369;47.842;13.096;2022-08-14T14:15:43;54.50;24.70
8664;DHT22;4369;47.842;13.096;2022-08-14T14:18:10;54.90;24.80
8664;DHT22;4369;47.842;13.096;2022-08-14T14:20:42;55.00;24.60
8664;DHT22;4369;47.842;13.096;2022-08-14T14:23:11;54.20;24.10
8664;DHT22;4369;47.842;13.096;2022-08-14T14:25:42;53.90;25.20
8664;DHT22;4369;47.842;13.096;2022-08-14T14:28:13;54.20;24.60
8664;DHT22;4369;47.842;13.096;2022-08-14T14:30:44;53.80;24.70
8664;DHT22;4369;47.842;13.096;2022-08-14T14:33:12;54.30;25.10
8664;DHT22;4369;47.842;13.096;2022-08-14T14:35:43;55.10;25.10
8664;DHT22;4369;47.842;13.096;2022-08-14T14:38:13;54.50;24.70
8664;DHT22;4369;47.842;13.096;2022-08-14T14:40:43;54.00;25.40
8664;DHT22;4369;47.842;13.096;2022-08-14T14:43:13;53.60;25.10
8664;DHT22;4369;47.842;13.096;2022-08-14T14:45:43;51.70;24.80
8664;DHT22;4369;47.842;13.096;2022-08-14T14:48:11;51.30;26.00
8664;DHT22;4369;47.842;13.096;2022-08-14T14:50:38;50.80;25.80
8664;DHT22;4369;47.842;13.096;2022-08-14T14:53:06;50.80;26.00
8664;DHT22;4369;47.842;13.096;2022-08-14T14:55:34;50.00;26.30
8664;DHT22;4369;47.842;13.096;2022-08-14T14:58:00;46.80;27.30
8664;DHT22;4369;47.842;13.096;2022-08-14T15:00:27;46.80;29.00
8664;DHT22;4369;47.842;13.096;2022-08-14T15:02:54;47.50;28.50
8664;DHT22;4369;47.842;13.096;2022-08-14T15:05:23;47.70;29.60
8664;DHT22;4369;47.842;13.096;2022-08-14T15:07:51;47.50;28.90
8664;DHT22;4369;47.842;13.096;2022-08-14T15:10:20;46.80;28.70
8664;DHT22;4369;47.842;13.096;2022-08-14T15:12:47;47.00;28.80
8664;DHT22;4369;47.842;13.096;2022-08-14T15:15:14;47.00;28.80
8664;DHT22;4369;47.842;13.096;2022-08-14T15:17:42;46.30;29.20
8664;DHT22;4369;47.842;13.096;2022-08-14T15:20:12;45.80;29.80
8664;DHT22;4369;47.842;13.096;2022-08-14T15:22:39;45.40;29.90
8664;DHT22;4369;47.842;13.096;2022-08-14T15:25:09;43.30;30.50
8664;DHT22;4369;47.842;13.096;2022-08-14T15:27:39;42.80;31.10
8664;DHT22;4369;47.842;13.096;2022-08-14T15:30:10;43.20;31.20
8664;DHT22;4369;47.842;13.096;2022-08-14T15:32:37;43.40;31.30
8664;DHT22;4369;47.842;13.096;2022-08-14T15:35:05;43.10;32.10
8664;DHT22;4369;47.842;13.096;2022-08-14T15:37:32;43.20;32.50
8664;DHT22;4369;47.842;13.096;2022-08-14T15:40:00;42.70;33.00
8664;DHT22;4369;47.842;13.096;2022-08-14T15:42:27;42.40;32.50
8664;DHT22;4369;47.842;13.096;2022-08-14T15:44:56;41.80;33.20
8664;DHT22;4369;47.842;13.096;2022-08-14T15:47:25;41.50;34.20
8664;DHT22;4369;47.842;13.096;2022-08-14T15:49:52;41.50;33.90
8664;DHT22;4369;47.842;13.096;2022-08-14T15:52:19;40.90;34.30
8664;DHT22;4369;47.842;13.096;2022-08-14T15:54:47;40.10;34.60
8664;DHT22;4369;47.842;13.096;2022-08-14T15:57:14;39.60;35.90
8664;DHT22;4369;47.842;13.096;2022-08-14T15:59:41;38.40;37.50
8664;DHT22;4369;47.842;13.096;2022-08-14T16:02:27;37.40;38.20